createdAt,value
2023-01-21T00:00:29.825Z,14.73
2023-01-21T00:05:32.468Z,14.80
2023-01-21T00:10:35.106Z,14.88
2023-01-21T00:15:37.845Z,13.88
2023-01-21T00:20:40.478Z,13.95
2023-01-21T00:25:43.060Z,13.15
2023-01-21T00:30:45.699Z,11.75
2023-01-21T00:36:00.491Z,11.65
2023-01-21T00:41:08.889Z,11.55
2023-01-21T00:46:11.884Z,11.25
2023-01-21T00:51:14.598Z,9.55
2023-01-21T00:56:17.172Z,8.88
2023-01-21T01:01:21.263Z,9.68
2023-01-21T01:06:24.552Z,9.27
2023-01-21T01:11:28.184Z,7.07
2023-01-21T01:16:30.882Z,8.75
2023-01-21T01:21:33.604Z,6.90
2023-01-21T01:26:36.458Z,6.90
2023-01-21T01:31:39.534Z,6.40
2023-01-21T01:36:42.301Z,5.88
2023-01-21T01:41:44.950Z,5.25
2023-01-21T01:46:47.660Z,5.82
2023-01-21T01:52:03.211Z,5.32
2023-01-21T01:57:09.531Z,4.75
2023-01-21T02:02:16.141Z,4.82
2023-01-21T02:07:20.124Z,4.57
2023-01-21T02:12:23.272Z,4.07
2023-01-21T02:17:44.526Z,4.00
2023-01-21T02:23:13.015Z,4.03
2023-01-21T02:28:47.976Z,4.38
2023-01-21T02:34:06.365Z,4.15
2023-01-21T02:39:31.814Z,3.83
2023-01-21T02:44:46.903Z,4.05
2023-01-21T02:49:59.616Z,4.10
2023-01-21T02:55:03.587Z,4.45
2023-01-21T03:00:13.129Z,3.65
2023-01-21T03:05:18.471Z,3.88
2023-01-21T03:10:45.555Z,4.63
2023-01-21T03:16:15.714Z,3.85
2023-01-21T03:21:25.553Z,3.63
2023-01-21T03:26:35.912Z,3.70
2023-01-21T03:31:42.845Z,3.88
2023-01-21T03:36:53.512Z,3.42
2023-01-21T03:41:56.212Z,3.30
2023-01-21T03:47:01.468Z,3.75
2023-01-21T03:52:06.606Z,3.97
2023-01-21T03:57:09.190Z,3.83
2023-01-21T04:02:12.258Z,3.30
2023-01-21T04:07:17.880Z,4.88
2023-01-21T04:12:20.462Z,3.72
2023-01-21T04:17:23.059Z,2.80
2023-01-21T04:22:25.773Z,3.22
2023-01-21T04:27:28.344Z,3.05
2023-01-21T04:32:30.870Z,3.38
2023-01-21T04:37:33.468Z,3.20
2023-01-21T04:42:35.981Z,3.53
2023-01-21T04:47:45.010Z,2.97
2023-01-21T04:52:47.554Z,3.47
2023-01-21T04:57:50.089Z,3.33
2023-01-21T05:02:52.594Z,3.40
2023-01-21T05:07:55.757Z,2.88
2023-01-21T05:12:59.147Z,3.30
2023-01-21T05:18:01.701Z,3.38
2023-01-21T05:23:04.461Z,3.05
2023-01-21T05:28:07.035Z,2.85
2023-01-21T05:33:09.575Z,3.28
2023-01-21T05:38:12.133Z,3.35
2023-01-21T05:43:14.678Z,2.92
2023-01-21T05:48:17.211Z,3.22
2023-01-21T05:53:19.826Z,3.50
2023-01-21T05:58:23.584Z,2.97
2023-01-21T06:03:26.457Z,3.15
2023-01-21T06:08:29.286Z,3.25
2023-01-21T06:13:31.902Z,3.08
2023-01-21T06:18:35.217Z,3.25
2023-01-21T06:23:37.866Z,3.53
2023-01-21T06:28:40.549Z,3.63
2023-01-21T06:33:43.070Z,3.50
2023-01-21T06:38:45.591Z,3.15
2023-01-21T06:43:48.165Z,2.83
2023-01-21T06:48:52.143Z,3.60
2023-01-21T06:53:54.772Z,3.35
2023-01-21T06:58:57.424Z,3.45
2023-01-21T07:04:01.590Z,4.00
2023-01-21T07:09:05.361Z,3.50
2023-01-21T07:14:08.017Z,4.97
2023-01-21T07:19:11.778Z,3.63
2023-01-21T07:24:14.292Z,3.65
2023-01-21T07:29:17.041Z,4.28
2023-01-21T07:34:19.705Z,4.07
2023-01-21T07:39:22.265Z,4.32
2023-01-21T07:44:24.878Z,3.95
2023-01-21T07:49:27.394Z,4.03
2023-01-21T07:54:30.004Z,6.32
2023-01-21T07:59:32.541Z,4.75
2023-01-21T08:04:35.116Z,4.05
2023-01-21T08:09:37.771Z,5.50
2023-01-21T08:14:40.327Z,5.22
2023-01-21T08:19:42.886Z,5.38
2023-01-21T08:24:45.758Z,4.57
2023-01-21T08:29:48.773Z,5.10
2023-01-21T08:34:51.360Z,4.43
2023-01-21T08:39:53.938Z,4.63
2023-01-21T08:44:56.456Z,4.80
2023-01-21T08:49:59.013Z,4.95
2023-01-21T08:55:01.759Z,6.05
2023-01-21T09:00:06.247Z,5.35
2023-01-21T09:05:08.973Z,4.85
2023-01-21T09:10:12.304Z,4.50
2023-01-21T09:15:15.590Z,4.47
2023-01-21T09:20:18.452Z,3.83
2023-01-21T09:25:23.169Z,3.95
2023-01-21T09:30:25.990Z,3.97
2023-01-21T09:35:28.665Z,6.03
2023-01-21T09:40:31.354Z,4.70
2023-01-21T09:45:34.201Z,4.60
2023-01-21T09:50:40.156Z,4.55
2023-01-21T09:55:49.865Z,4.30
2023-01-21T10:00:58.942Z,4.43
2023-01-21T10:06:12.353Z,4.10
2023-01-21T10:11:34.510Z,3.85
2023-01-21T10:16:49.650Z,3.72
2023-01-21T10:22:03.978Z,4.45
2023-01-21T10:27:15.721Z,3.80
2023-01-21T10:32:23.023Z,4.13
2023-01-21T10:37:47.383Z,4.38
2023-01-21T10:43:03.404Z,3.83
2023-01-21T10:48:36.259Z,4.03
2023-01-21T10:53:58.529Z,3.83
2023-01-21T10:59:06.392Z,3.70
2023-01-21T11:04:19.808Z,3.80
2023-01-21T11:09:26.380Z,3.55
2023-01-21T11:14:29.265Z,4.03
2023-01-21T11:19:32.088Z,4.05
2023-01-21T11:24:49.839Z,2.85
2023-01-21T11:29:52.374Z,3.88
2023-01-21T11:35:10.697Z,3.38
2023-01-21T11:40:27.107Z,3.20
2023-01-21T11:45:37.968Z,2.80
2023-01-21T11:50:40.901Z,3.47
2023-01-21T11:55:51.071Z,3.78
2023-01-21T12:00:56.689Z,4.50
2023-01-21T12:06:04.368Z,3.70
2023-01-21T12:11:11.550Z,3.42
2023-01-21T12:16:43.350Z,4.38
2023-01-21T12:22:02.946Z,3.65
2023-01-21T12:27:27.838Z,3.40
2023-01-21T12:32:38.590Z,3.70
2023-01-21T12:42:57.029Z,4.03
2023-01-21T12:48:10.537Z,4.90
2023-01-21T12:53:42.140Z,4.53
2023-01-21T12:58:53.539Z,3.05
2023-01-21T13:04:06.886Z,2.95
2023-01-21T13:09:19.799Z,2.63
2023-01-21T13:14:39.573Z,3.30
2023-01-21T13:19:42.077Z,3.30
2023-01-21T13:25:06.407Z,3.35
2023-01-21T13:30:30.598Z,2.90
2023-01-21T13:35:43.261Z,3.20
2023-01-21T13:41:04.689Z,3.00
2023-01-21T13:46:07.223Z,3.90
2023-01-21T13:51:29.181Z,3.40
2023-01-21T14:01:56.505Z,3.05
2023-01-21T14:07:16.386Z,3.58
2023-01-21T14:12:40.712Z,3.30
2023-01-21T14:18:06.300Z,2.63
2023-01-21T14:23:35.205Z,2.47
2023-01-21T14:28:51.465Z,2.85
2023-01-21T14:34:34.355Z,4.13
2023-01-21T14:40:02.145Z,4.75
2023-01-21T14:45:08.352Z,3.85
2023-01-21T14:50:11.022Z,2.92
2023-01-21T14:55:33.117Z,2.60
2023-01-21T15:00:37.220Z,3.22
2023-01-21T15:05:42.266Z,3.35
2023-01-21T15:10:54.583Z,3.03
2023-01-21T15:16:06.416Z,3.53
2023-01-21T15:26:32.515Z,2.67
2023-01-21T15:31:45.000Z,2.97
2023-01-21T15:36:53.150Z,2.30
2023-01-21T15:42:02.860Z,2.60
2023-01-21T15:47:11.930Z,3.03
2023-01-21T15:52:24.255Z,3.53
2023-01-21T15:57:59.665Z,2.90
2023-01-21T16:03:11.326Z,2.50
2023-01-21T16:08:35.257Z,2.17
2023-01-21T16:14:01.309Z,2.35
2023-01-21T16:19:11.500Z,2.70
2023-01-21T16:24:17.555Z,2.55
2023-01-21T16:29:20.205Z,2.70
2023-01-21T16:34:31.991Z,2.85
2023-01-21T16:44:37.178Z,2.85
2023-01-21T16:49:43.348Z,2.63
2023-01-21T16:54:54.714Z,2.92
2023-01-21T16:59:58.193Z,2.63
2023-01-21T17:05:08.344Z,4.32
2023-01-21T17:10:13.752Z,3.53
2023-01-21T17:15:41.957Z,3.37
2023-01-21T17:20:49.679Z,3.13
2023-01-21T17:26:03.615Z,2.70
2023-01-21T17:31:37.041Z,2.40
2023-01-21T17:36:40.212Z,3.13
2023-01-21T17:41:46.259Z,4.00
2023-01-21T17:46:54.388Z,3.53
2023-01-21T17:51:57.037Z,3.13
2023-01-21T17:57:00.625Z,3.50
2023-01-21T18:02:11.239Z,4.80
2023-01-21T18:07:30.036Z,4.30
2023-01-21T18:12:32.660Z,4.13
2023-01-21T18:17:37.764Z,3.17
2023-01-21T18:22:40.334Z,3.93
2023-01-21T18:27:47.081Z,2.83
2023-01-21T18:32:52.709Z,2.73
2023-01-21T18:37:55.622Z,4.10
2023-01-21T18:42:58.194Z,2.93
2023-01-21T18:48:00.908Z,2.40
2023-01-21T18:53:03.507Z,2.97
2023-01-21T18:58:12.224Z,2.93
2023-01-21T19:03:15.370Z,2.70
2023-01-21T19:08:22.759Z,2.70
2023-01-21T19:13:25.393Z,3.03
2023-01-21T19:18:28.200Z,2.73
2023-01-21T19:23:30.729Z,2.50
2023-01-21T19:28:34.090Z,2.87
2023-01-21T19:33:36.752Z,2.90
2023-01-21T19:38:40.453Z,3.53
2023-01-21T19:43:44.197Z,3.40
2023-01-21T19:48:50.436Z,3.03
2023-01-21T19:53:52.972Z,3.67
2023-01-21T19:58:55.664Z,3.93
2023-01-21T20:04:00.635Z,2.97
2023-01-21T20:09:05.404Z,3.93
2023-01-21T20:14:08.081Z,4.13
2023-01-21T20:19:14.124Z,4.03
2023-01-21T20:24:17.798Z,4.40
2023-01-21T20:29:22.186Z,4.30
2023-01-21T20:34:24.953Z,4.93
2023-01-21T20:39:27.501Z,5.00
2023-01-21T20:44:30.181Z,5.30
2023-01-21T20:49:32.721Z,5.10
2023-01-21T20:54:35.408Z,4.70
2023-01-21T20:59:37.952Z,6.20
2023-01-21T21:04:40.509Z,5.67
2023-01-21T21:09:43.145Z,5.87
2023-01-21T21:14:45.680Z,6.53
2023-01-21T21:19:48.197Z,5.87
2023-01-21T21:24:50.854Z,6.27
2023-01-21T21:29:56.108Z,6.00
2023-01-21T21:34:58.686Z,6.20
2023-01-21T21:40:01.225Z,6.80
2023-01-21T21:45:03.871Z,7.28
2023-01-21T21:50:06.816Z,6.00
2023-01-21T21:55:14.530Z,6.43
2023-01-21T22:00:18.660Z,6.50
2023-01-21T22:05:21.250Z,7.13
2023-01-21T22:10:23.926Z,6.67
2023-01-21T22:15:26.500Z,6.57
2023-01-21T22:20:29.003Z,8.03
2023-01-21T22:25:31.604Z,7.43
2023-01-21T22:30:34.241Z,7.23
2023-01-21T22:35:36.893Z,8.00
2023-01-21T22:40:40.294Z,8.17
2023-01-21T22:45:47.469Z,7.67
2023-01-21T22:50:55.097Z,7.30
2023-01-21T22:56:00.993Z,7.83
2023-01-21T23:01:04.261Z,18.00
2023-01-21T23:06:08.447Z,9.13
2023-01-21T23:11:12.431Z,8.03
2023-01-21T23:16:17.817Z,7.17
2023-01-21T23:21:22.000Z,7.80
2023-01-21T23:26:24.620Z,7.30
2023-01-21T23:31:27.313Z,7.80
2023-01-21T23:36:30.414Z,7.27
2023-01-21T23:41:33.054Z,8.13
2023-01-21T23:46:43.674Z,8.63
2023-01-21T23:51:47.465Z,9.07
2023-01-21T23:56:49.988Z,8.23
